createdAt,value
2022-08-07T00:01:44.704Z,14.90
2022-08-07T00:04:15.856Z,16.70
2022-08-07T00:06:51.575Z,16.77
2022-08-07T00:09:22.659Z,16.52
2022-08-07T00:11:55.877Z,17.02
2022-08-07T00:14:31.456Z,17.10
2022-08-07T00:17:02.581Z,15.15
2022-08-07T00:19:59.969Z,14.70
2022-08-07T00:22:24.441Z,14.60
2022-08-07T00:25:15.691Z,16.08
2022-08-07T00:27:52.509Z,14.70
2022-08-07T00:30:27.764Z,16.30
2022-08-07T00:32:58.455Z,17.33
2022-08-07T00:35:29.630Z,13.65
2022-08-07T00:38:00.288Z,16.08
2022-08-07T00:40:36.585Z,15.32
2022-08-07T00:43:58.689Z,14.90
2022-08-07T00:46:01.715Z,16.27
2022-08-07T00:48:32.512Z,14.10
2022-08-07T00:51:03.121Z,15.05
2022-08-07T00:53:39.036Z,16.88
2022-08-07T00:56:19.108Z,16.00
2022-08-07T00:58:49.791Z,17.73
2022-08-07T01:01:20.827Z,15.13
2022-08-07T01:03:56.438Z,16.20
2022-08-07T01:06:29.662Z,15.75
2022-08-07T01:09:00.932Z,15.32
2022-08-07T01:12:08.889Z,15.13
2022-08-07T01:14:28.307Z,16.33
2022-08-07T01:16:58.290Z,16.38
2022-08-07T01:19:32.490Z,15.18
2022-08-07T01:22:03.461Z,16.33
2022-08-07T01:24:42.515Z,18.88
2022-08-07T01:29:50.767Z,17.63
2022-08-07T01:32:22.329Z,18.45
2022-08-07T01:34:55.403Z,15.10
2022-08-07T01:39:59.402Z,16.27
2022-08-07T01:42:38.812Z,15.18
2022-08-07T01:45:17.850Z,16.80
2022-08-07T01:48:21.064Z,16.85
2022-08-07T01:50:46.307Z,15.93
2022-08-07T01:53:20.918Z,17.63
2022-08-07T01:56:05.438Z,15.13
2022-08-07T01:58:41.074Z,16.45
2022-08-07T02:01:44.771Z,20.98
2022-08-07T02:04:26.671Z,17.80
2022-08-07T02:07:03.104Z,15.32
2022-08-07T02:09:51.631Z,15.43
2022-08-07T02:12:31.020Z,18.15
2022-08-07T02:15:06.916Z,16.35
2022-08-07T02:17:41.662Z,16.77
2022-08-07T02:20:23.678Z,19.48
2022-08-07T02:23:00.211Z,17.30
2022-08-07T02:26:11.399Z,18.83
2022-08-07T02:28:25.624Z,17.58
2022-08-07T02:31:19.131Z,16.95
2022-08-07T02:34:01.620Z,16.25
2022-08-07T02:36:38.607Z,18.92
2022-08-07T02:39:17.278Z,15.00
2022-08-07T02:42:03.562Z,15.48
2022-08-07T02:44:48.371Z,17.98
2022-08-07T02:47:23.422Z,17.27
2022-08-07T02:50:00.412Z,17.98
2022-08-07T02:52:39.045Z,20.60
2022-08-07T02:55:28.414Z,15.90
2022-08-07T02:58:10.141Z,18.42
2022-08-07T03:00:42.101Z,17.25
2022-08-07T03:03:22.575Z,18.25
2022-08-07T03:05:56.661Z,20.27
2022-08-07T03:08:29.113Z,18.20
2022-08-07T03:11:01.761Z,17.40
2022-08-07T03:13:38.677Z,16.38
2022-08-07T03:16:10.800Z,18.25
2022-08-07T03:18:40.884Z,18.33
2022-08-07T03:21:13.925Z,18.15
2022-08-07T03:24:20.591Z,16.55
2022-08-07T03:26:51.298Z,16.05
2022-08-07T03:29:37.526Z,15.90
2022-08-07T03:32:13.444Z,18.23
2022-08-07T03:34:47.387Z,22.15
2022-08-07T03:37:45.922Z,21.08
2022-08-07T03:40:16.882Z,16.13
2022-08-07T03:42:46.631Z,18.02
2022-08-07T03:45:30.229Z,18.58
2022-08-07T03:48:10.017Z,17.67
2022-08-07T03:50:43.225Z,22.77
2022-08-07T03:53:50.122Z,16.70
2022-08-07T03:56:33.290Z,16.20
2022-08-07T03:59:09.479Z,16.45
2022-08-07T04:04:17.945Z,16.75
2022-08-07T04:06:51.840Z,17.98
2022-08-07T04:09:23.683Z,17.55
2022-08-07T04:12:25.455Z,17.77
2022-08-07T04:14:49.195Z,18.08
2022-08-07T04:17:21.901Z,16.52
2022-08-07T04:19:56.410Z,16.65
2022-08-07T04:22:30.133Z,19.65
2022-08-07T04:25:08.882Z,15.93
2022-08-07T04:27:46.211Z,15.75
2022-08-07T04:30:43.734Z,16.17
2022-08-07T04:33:24.762Z,15.85
2022-08-07T04:35:55.497Z,19.00
2022-08-07T04:38:29.742Z,18.02
2022-08-07T04:40:59.699Z,16.27
2022-08-07T04:44:13.090Z,17.98
2022-08-07T04:47:04.575Z,17.73
2022-08-07T04:49:57.835Z,15.80
2022-08-07T04:52:50.879Z,16.00
2022-08-07T04:58:09.709Z,13.73
2022-08-07T04:59:17.479Z,14.77
2022-08-07T05:01:43.022Z,16.65
2022-08-07T05:07:36.870Z,13.40
2022-08-07T05:10:29.544Z,16.63
2022-08-07T05:14:44.431Z,15.30
2022-08-07T05:15:58.640Z,16.17
2022-08-07T05:18:32.966Z,15.35
2022-08-07T05:21:05.466Z,13.55
2022-08-07T05:23:47.694Z,15.85
2022-08-07T05:26:24.560Z,16.02
2022-08-07T05:29:05.294Z,14.15
2022-08-07T05:31:39.864Z,14.25
2022-08-07T05:34:17.285Z,15.13
2022-08-07T05:36:52.832Z,13.25
2022-08-07T05:40:05.753Z,17.67
2022-08-07T05:42:34.268Z,15.82
2022-08-07T05:45:25.808Z,14.73
2022-08-07T05:48:03.654Z,12.13
2022-08-07T05:50:46.917Z,14.95
2022-08-07T05:54:12.781Z,14.57
2022-08-07T05:56:12.368Z,13.50
2022-08-07T05:58:49.183Z,19.30
2022-08-07T06:01:35.901Z,15.15
2022-08-07T06:04:09.508Z,12.00
2022-08-07T06:06:46.311Z,11.73
2022-08-07T06:09:17.809Z,17.73
2022-08-07T06:11:48.984Z,16.08
2022-08-07T06:14:28.941Z,17.30
2022-08-07T06:17:07.354Z,14.77
2022-08-07T06:19:57.614Z,14.63
2022-08-07T06:22:38.542Z,14.50
2022-08-07T06:25:34.906Z,15.55
2022-08-07T06:28:07.409Z,11.13
2022-08-07T06:30:42.688Z,12.40
2022-08-07T06:33:19.412Z,17.20
2022-08-07T06:36:13.488Z,18.88
2022-08-07T06:38:51.207Z,12.90
2022-08-07T06:42:02.477Z,11.45
2022-08-07T06:44:36.787Z,13.35
2022-08-07T06:47:12.151Z,11.55
2022-08-07T06:52:37.670Z,12.90
2022-08-07T06:55:33.474Z,11.73
2022-08-07T06:58:10.956Z,10.88
2022-08-07T07:00:53.912Z,15.05
2022-08-07T07:03:39.647Z,11.40
2022-08-07T07:06:13.552Z,12.85
2022-08-07T07:08:52.980Z,11.73
2022-08-07T07:12:08.868Z,15.63
2022-08-07T07:14:14.113Z,13.73
2022-08-07T07:16:51.066Z,11.45
2022-08-07T07:19:55.895Z,10.77
2022-08-07T07:26:31.280Z,14.93
2022-08-07T07:28:29.482Z,14.40
2022-08-07T07:31:01.585Z,12.85
2022-08-07T07:33:34.416Z,11.35
2022-08-07T07:36:05.291Z,12.82
2022-08-07T07:38:36.063Z,12.77
2022-08-07T07:41:09.387Z,10.93
2022-08-07T07:44:14.203Z,9.30
2022-08-07T07:46:54.694Z,11.10
2022-08-07T07:50:35.772Z,10.95
2022-08-07T07:52:19.279Z,10.40
2022-08-07T07:54:50.552Z,9.95
2022-08-07T07:57:50.296Z,14.27
2022-08-07T08:00:29.075Z,13.48
2022-08-07T08:03:08.257Z,12.43
2022-08-07T08:05:50.786Z,14.63
2022-08-07T08:08:34.327Z,11.30
2022-08-07T08:11:16.100Z,12.43
2022-08-07T08:13:53.909Z,11.60
2022-08-07T08:16:31.018Z,9.98
2022-08-07T08:19:17.312Z,9.57
2022-08-07T08:22:08.108Z,14.07
2022-08-07T08:25:24.570Z,10.95
2022-08-07T08:28:04.058Z,9.75
2022-08-07T08:30:42.623Z,9.77
2022-08-07T08:33:21.993Z,12.73
2022-08-07T08:35:56.090Z,16.40
2022-08-07T08:38:38.131Z,13.70
2022-08-07T08:41:21.717Z,12.48
2022-08-07T08:44:09.899Z,12.90
2022-08-07T08:47:10.005Z,10.48
2022-08-07T08:50:04.829Z,10.80
2022-08-07T08:52:40.889Z,11.20
2022-08-07T08:55:58.579Z,10.00
2022-08-07T08:58:30.756Z,11.50
2022-08-07T09:01:16.178Z,11.73
2022-08-07T09:04:08.749Z,8.15
2022-08-07T09:07:24.465Z,7.93
2022-08-07T09:10:17.848Z,9.05
2022-08-07T09:13:07.287Z,6.93
2022-08-07T09:16:22.154Z,9.63
2022-08-07T09:18:34.941Z,9.55
2022-08-07T09:21:57.705Z,8.68
2022-08-07T09:24:55.124Z,8.20
2022-08-07T09:28:00.585Z,8.80
2022-08-07T09:30:46.746Z,8.90
2022-08-07T09:33:53.187Z,4.22
2022-08-07T09:36:37.511Z,5.60
2022-08-07T09:39:53.988Z,13.57
2022-08-07T09:42:58.233Z,5.80
2022-08-07T09:47:50.136Z,9.10
2022-08-07T09:50:01.257Z,6.40
2022-08-07T09:52:34.295Z,9.35
2022-08-07T09:55:29.426Z,5.53
2022-08-07T09:58:32.389Z,6.45
2022-08-07T10:01:51.500Z,5.75
2022-08-07T10:04:38.410Z,7.38
2022-08-07T10:07:24.470Z,5.25
2022-08-07T10:10:20.979Z,9.43
2022-08-07T10:12:53.625Z,8.35
2022-08-07T10:15:44.597Z,4.75
2022-08-07T10:18:35.274Z,8.05
2022-08-07T10:22:14.841Z,6.22
2022-08-07T10:24:33.663Z,6.60
2022-08-07T10:30:07.303Z,8.25
2022-08-07T10:33:00.054Z,6.20
2022-08-07T10:36:11.468Z,6.95
2022-08-07T10:39:04.358Z,6.90
2022-08-07T10:41:46.495Z,5.93
2022-08-07T10:44:38.337Z,7.57
2022-08-07T10:47:16.295Z,3.60
2022-08-07T10:50:29.145Z,8.90
2022-08-07T10:53:28.450Z,7.88
2022-08-07T10:56:33.185Z,5.68
2022-08-07T10:59:24.661Z,5.55
2022-08-07T11:02:34.341Z,8.85
2022-08-07T11:05:21.796Z,5.13
2022-08-07T11:08:11.938Z,9.18
2022-08-07T11:10:59.402Z,4.78
2022-08-07T11:14:45.363Z,7.30
2022-08-07T11:16:30.702Z,8.50
2022-08-07T11:19:10.291Z,9.27
2022-08-07T11:22:33.309Z,5.07
2022-08-07T11:25:23.511Z,10.25
2022-08-07T11:28:04.467Z,4.70
2022-08-07T11:30:49.306Z,3.10
2022-08-07T11:33:54.354Z,6.68
2022-08-07T11:36:30.990Z,7.07
2022-08-07T11:39:39.698Z,5.07
2022-08-07T11:42:29.770Z,5.55
2022-08-07T11:45:20.533Z,8.45
2022-08-07T11:48:18.282Z,9.45
2022-08-07T11:51:22.893Z,7.75
2022-08-07T11:54:25.293Z,7.40
2022-08-07T11:58:00.792Z,6.38
2022-08-07T12:00:32.172Z,6.40
2022-08-07T12:03:41.348Z,6.72
2022-08-07T12:06:38.857Z,7.65
2022-08-07T12:09:38.354Z,7.85
2022-08-07T12:12:18.797Z,9.82
2022-08-07T12:15:00.588Z,9.13
2022-08-07T12:17:59.479Z,8.02
2022-08-07T12:20:38.597Z,5.05
2022-08-07T12:24:07.237Z,4.85
2022-08-07T12:26:46.595Z,8.02
2022-08-07T12:29:37.908Z,6.80
2022-08-07T12:32:15.326Z,7.20
2022-08-07T12:34:49.148Z,9.55
2022-08-07T12:37:23.316Z,6.40
2022-08-07T12:39:55.381Z,8.25
2022-08-07T12:42:32.035Z,5.82
2022-08-07T12:45:09.536Z,6.75
2022-08-07T12:47:54.042Z,7.07
2022-08-07T12:50:40.360Z,5.07
2022-08-07T12:54:03.078Z,5.60
2022-08-07T12:56:55.022Z,10.35
2022-08-07T12:59:33.031Z,7.13
2022-08-07T13:02:33.316Z,11.00
2022-08-07T13:06:04.043Z,5.90
2022-08-07T13:10:10.945Z,12.80
2022-08-07T13:12:40.993Z,7.18
2022-08-07T13:15:29.579Z,7.45
2022-08-07T13:18:10.970Z,5.53
2022-08-07T13:21:13.902Z,10.45
2022-08-07T13:24:04.655Z,3.78
2022-08-07T13:26:46.231Z,8.50
2022-08-07T13:29:25.258Z,8.73
2022-08-07T13:32:15.287Z,7.25
2022-08-07T13:35:03.250Z,7.90
2022-08-07T13:37:55.422Z,5.05
2022-08-07T13:40:34.946Z,8.05
2022-08-07T13:43:13.826Z,9.07
2022-08-07T13:46:12.042Z,8.73
2022-08-07T13:48:39.681Z,7.72
2022-08-07T13:51:28.153Z,6.88
2022-08-07T13:54:03.283Z,10.23
2022-08-07T13:56:40.879Z,6.53
2022-08-07T13:59:17.881Z,10.27
2022-08-07T14:02:03.862Z,10.10
2022-08-07T14:04:48.992Z,8.82
2022-08-07T14:07:22.816Z,7.13
2022-08-07T14:10:12.608Z,9.65
2022-08-07T14:12:56.360Z,8.35
2022-08-07T14:15:35.112Z,7.45
2022-08-07T14:18:32.549Z,6.25
2022-08-07T14:22:01.286Z,7.18
2022-08-07T14:24:14.033Z,10.88
2022-08-07T14:26:51.815Z,8.52
2022-08-07T14:30:05.723Z,9.13
2022-08-07T14:32:19.140Z,5.32
2022-08-07T14:34:49.534Z,7.32
2022-08-07T14:37:39.077Z,8.20
2022-08-07T14:40:26.574Z,8.48
2022-08-07T14:43:58.983Z,5.47
2022-08-07T14:45:57.615Z,5.38
2022-08-07T14:48:32.632Z,5.20
2022-08-07T14:54:30.077Z,6.90
2022-08-07T14:56:50.885Z,9.85
2022-08-07T15:00:04.311Z,9.98
2022-08-07T15:05:19.779Z,7.75
2022-08-07T15:07:51.832Z,8.65
2022-08-07T15:10:29.647Z,9.35
2022-08-07T15:13:25.427Z,10.13
2022-08-07T15:19:00.714Z,8.02
2022-08-07T15:21:43.730Z,10.68
2022-08-07T15:27:22.397Z,10.75
2022-08-07T15:30:10.332Z,8.80
2022-08-07T15:32:50.883Z,5.30
2022-08-07T15:36:00.517Z,7.80
2022-08-07T15:38:51.919Z,8.15
2022-08-07T15:42:44.164Z,8.27
2022-08-07T15:44:15.521Z,6.00
2022-08-07T15:50:04.877Z,8.43
2022-08-07T15:52:30.006Z,6.70
2022-08-07T15:55:09.069Z,9.07
2022-08-07T15:57:48.747Z,10.35
2022-08-07T16:00:31.662Z,8.70
2022-08-07T16:03:20.457Z,6.03
2022-08-07T16:05:53.305Z,10.68
2022-08-07T16:08:32.552Z,12.88
2022-08-07T16:11:26.831Z,6.35
2022-08-07T16:14:22.450Z,5.28
2022-08-07T16:17:15.961Z,8.60
2022-08-07T16:22:38.048Z,9.25
2022-08-07T16:25:23.266Z,8.80
2022-08-07T16:30:05.491Z,7.03
2022-08-07T16:31:58.215Z,8.82
2022-08-07T16:34:57.210Z,8.13
2022-08-07T16:38:05.673Z,5.82
2022-08-07T16:41:02.812Z,8.38
2022-08-07T16:44:05.604Z,9.75
2022-08-07T16:47:05.765Z,7.72
2022-08-07T16:50:20.280Z,9.73
2022-08-07T16:53:09.820Z,11.95
2022-08-07T16:55:47.914Z,8.82
2022-08-07T16:59:02.278Z,8.43
2022-08-07T17:04:27.651Z,8.63
2022-08-07T17:07:28.564Z,11.48
2022-08-07T17:10:54.373Z,12.80
2022-08-07T17:14:19.386Z,6.80
2022-08-07T17:17:04.949Z,10.68
2022-08-07T17:20:01.913Z,7.65
2022-08-07T17:23:17.115Z,6.40
2022-08-07T17:26:04.311Z,9.70
2022-08-07T17:28:49.687Z,13.18
2022-08-07T17:31:24.119Z,9.35
2022-08-07T17:34:34.647Z,8.45
2022-08-07T17:37:09.830Z,12.27
2022-08-07T17:40:05.465Z,11.10
2022-08-07T17:42:58.225Z,10.07
2022-08-07T17:45:42.199Z,7.05
2022-08-07T17:48:30.655Z,11.60
2022-08-07T17:51:02.892Z,10.20
2022-08-07T17:54:00.079Z,9.13
2022-08-07T17:56:35.501Z,8.57
2022-08-07T17:59:10.632Z,12.40
2022-08-07T18:02:09.130Z,9.88
2022-08-07T18:05:21.571Z,8.30
2022-08-07T18:08:23.890Z,9.23
2022-08-07T18:12:06.698Z,7.80
2022-08-07T18:14:37.606Z,8.98
2022-08-07T18:18:33.204Z,9.93
2022-08-07T18:21:03.778Z,11.45
2022-08-07T18:23:41.888Z,9.60
2022-08-07T18:26:05.381Z,9.40
2022-08-07T18:30:06.950Z,10.98
2022-08-07T18:32:13.100Z,11.20
2022-08-07T18:35:05.874Z,15.73
2022-08-07T18:38:58.723Z,14.32
2022-08-07T18:40:53.811Z,16.40
2022-08-07T18:43:57.537Z,13.88
2022-08-07T18:46:43.094Z,9.60
2022-08-07T18:50:31.640Z,13.00
2022-08-07T18:52:41.017Z,13.52
2022-08-07T18:55:43.305Z,10.82
2022-08-07T18:58:51.851Z,11.20
2022-08-07T19:02:18.324Z,9.63
2022-08-07T19:05:10.031Z,12.40
2022-08-07T19:08:05.231Z,11.75
2022-08-07T19:10:49.902Z,9.40
2022-08-07T19:13:29.265Z,10.23
2022-08-07T19:17:05.086Z,13.32
2022-08-07T19:19:28.066Z,14.45
2022-08-07T19:22:08.267Z,13.18
2022-08-07T19:24:48.798Z,11.20
2022-08-07T19:28:58.102Z,9.23
2022-08-07T19:31:02.940Z,12.25
2022-08-07T19:33:13.129Z,9.15
2022-08-07T19:35:55.122Z,11.27
2022-08-07T19:38:29.052Z,11.90
2022-08-07T19:41:03.486Z,9.60
2022-08-07T19:43:49.977Z,10.68
2022-08-07T19:46:26.622Z,11.80
2022-08-07T19:49:05.727Z,12.38
2022-08-07T19:51:53.079Z,9.02
2022-08-07T19:54:31.146Z,11.90
2022-08-07T19:58:03.628Z,14.73
2022-08-07T20:00:10.603Z,7.88
2022-08-07T20:02:51.849Z,14.25
2022-08-07T20:05:30.290Z,9.27
2022-08-07T20:08:31.733Z,9.48
2022-08-07T20:11:27.011Z,9.35
2022-08-07T20:14:20.937Z,7.78
2022-08-07T20:17:02.649Z,9.73
2022-08-07T20:19:48.234Z,9.45
2022-08-07T20:22:34.233Z,10.57
2022-08-07T20:25:19.377Z,12.00
2022-08-07T20:27:54.378Z,10.63
2022-08-07T20:30:39.837Z,11.00
2022-08-07T20:33:36.700Z,7.80
2022-08-07T20:36:10.150Z,10.32
2022-08-07T20:38:59.927Z,9.27
2022-08-07T20:41:34.198Z,8.93
2022-08-07T20:44:26.237Z,6.90
2022-08-07T20:47:05.420Z,7.82
2022-08-07T20:49:59.987Z,10.10
2022-08-07T20:52:50.404Z,9.07
2022-08-07T20:55:16.274Z,11.30
2022-08-07T20:58:02.904Z,10.70
2022-08-07T21:00:44.683Z,10.85
2022-08-07T21:03:25.564Z,10.27
2022-08-07T21:06:28.091Z,12.50
2022-08-07T21:09:15.118Z,12.43
2022-08-07T21:11:49.978Z,12.00
2022-08-07T21:14:33.040Z,11.85
2022-08-07T21:18:17.525Z,12.20
2022-08-07T21:20:04.995Z,13.70
2022-08-07T21:22:51.384Z,12.10
2022-08-07T21:25:45.030Z,11.93
2022-08-07T21:28:48.961Z,11.63
2022-08-07T21:31:49.159Z,12.30
2022-08-07T21:34:48.987Z,14.65
2022-08-07T21:37:26.455Z,14.00
2022-08-07T21:40:36.082Z,11.73
2022-08-07T21:43:55.976Z,14.73
2022-08-07T21:46:33.171Z,11.18
2022-08-07T21:49:27.763Z,12.63
2022-08-07T21:52:13.617Z,13.98
2022-08-07T21:55:02.838Z,11.93
2022-08-07T21:57:44.781Z,14.13
2022-08-07T22:00:25.462Z,11.43
2022-08-07T22:03:03.630Z,17.35
2022-08-07T22:05:48.324Z,15.85
2022-08-07T22:08:22.022Z,13.77
2022-08-07T22:11:00.670Z,11.82
2022-08-07T22:13:51.848Z,11.40
2022-08-07T22:16:53.675Z,12.93
2022-08-07T22:19:44.461Z,13.40
2022-08-07T22:22:29.333Z,14.80
2022-08-07T22:25:12.124Z,12.40
2022-08-07T22:28:06.413Z,14.10
2022-08-07T22:30:55.105Z,17.75
2022-08-07T22:33:52.598Z,12.00
2022-08-07T22:36:38.514Z,13.75
2022-08-07T22:39:39.546Z,12.00
2022-08-07T22:42:25.963Z,11.52
2022-08-07T22:45:03.693Z,9.85
2022-08-07T22:47:38.787Z,13.02
2022-08-07T22:50:07.495Z,11.50
2022-08-07T22:52:57.538Z,12.52
2022-08-07T22:55:46.110Z,12.15
2022-08-07T22:58:37.604Z,11.35
2022-08-07T23:01:42.045Z,13.73
2022-08-07T23:04:58.320Z,11.85
2022-08-07T23:07:54.086Z,12.98
2022-08-07T23:10:38.597Z,11.98
2022-08-07T23:13:48.769Z,10.38
2022-08-07T23:16:55.401Z,10.55
2022-08-07T23:19:52.117Z,12.90
2022-08-07T23:22:32.953Z,9.57
2022-08-07T23:25:29.478Z,13.18
2022-08-07T23:28:22.805Z,11.60
2022-08-07T23:32:49.464Z,9.07
2022-08-07T23:34:38.273Z,11.32
2022-08-07T23:37:23.923Z,15.05
2022-08-07T23:40:30.285Z,14.57
2022-08-07T23:43:16.704Z,11.43
2022-08-07T23:46:10.963Z,14.25
2022-08-07T23:49:24.410Z,17.08
2022-08-07T23:55:53.635Z,12.93
2022-08-07T23:58:44.188Z,14.95
